< < Back
Terminal Aerodrome Forecast


Current Version              Previous Versions:   1  2  3  4  5  6  7  8  9  

Terminal Aerodrome Forecast

950
FTUS42 KILM 211700
TAFILM
TAF
KILM 211720Z 2118/2218 29011KT P6SM FEW035 SCT200
     FM212300 23007KT P6SM SKC
     FM221300 28005KT P6SM FEW020
     FM221700 VRB05KT P6SM VCSH SCT035 BKN120=



Latest METAR

631
SAUS70 KWBC 221200
MTRILM
METAR KILM 221153Z AUTO 28004KT 10SM CLR 22/19 A2997 RMK AO2 SLP147
T02220189 10233 20211 51022


USA.gov is the U.S. government's official web portal to all federal, state and local government web resources and services.